Time;durP1;ratioP1;P1;durP2;ratioP2;P2;SDS_P1;SDS_P2;PMS_P1;PMS_P2;Temp;Humidity;BMP_temperature;BMP_pressure;BME280_temperature;BME280_humidity;BME280_pressure;Samples;Min_cycle;Max_cycle;Signal;HPM_P1;HPM_P2
2023/05/10 00:00:25;;;;;;;6.65;2.83;;;;;;;;;;4985583;28;20043;-83
2023/05/10 00:02:52;;;;;;;7.07;2.97;;;;;;;;;;4962465;28;20035;-80
2023/05/10 00:05:19;;;;;;;6.05;2.90;;;;;;;;;;4981342;28;20051;-79
2023/05/10 00:07:46;;;;;;;3.85;2.72;;;;;;;;;;4980110;28;20049;-83
2023/05/10 00:10:13;;;;;;;5.57;3.00;;;;;;;;;;4979641;28;20265;-82
2023/05/10 00:12:41;;;;;;;11.27;2.90;;;;;;;;;;4996063;28;20050;-81
2023/05/10 00:15:08;;;;;;;8.38;2.78;;;;;;;;;;4978236;28;20055;-82
2023/05/10 00:17:35;;;;;;;8.05;2.80;;;;;;;;;;4992301;28;20066;-82
2023/05/10 00:20:04;;;;;;;10.77;2.97;;;;;;;;;;4993779;28;20051;-85
2023/05/10 00:22:32;;;;;;;7.45;2.75;;;;;;;;;;4980973;28;20042;-82
2023/05/10 00:24:59;;;;;;;7.13;2.88;;;;;;;;;;4981639;28;20061;-82
2023/05/10 00:27:27;;;;;;;5.25;2.75;;;;;;;;;;4980915;28;20061;-84
2023/05/10 00:29:54;;;;;;;8.93;3.10;;;;;;;;;;4970192;28;20046;-83
2023/05/10 00:32:21;;;;;;;4.53;2.60;;;;;;;;;;4961192;28;20055;-82
2023/05/10 00:34:50;;;;;;;6.25;3.00;;;;;;;;;;4944453;28;20463;-81
2023/05/10 00:37:17;;;;;;;4.70;2.90;;;;;;;;;;4956089;28;20191;-87
2023/05/10 00:39:44;;;;;;;8.30;3.08;;;;;;;;;;4952019;28;20039;-82
2023/05/10 00:42:10;;;;;;;6.38;2.70;;;;;;;;;;4952129;28;20122;-81
2023/05/10 00:44:37;;;;;;;5.57;3.10;;;;;;;;;;4969225;28;20043;-82
2023/05/10 00:47:04;;;;;;;5.35;3.00;;;;;;;;;;4951407;28;20047;-84
2023/05/10 00:49:31;;;;;;;5.72;3.10;;;;;;;;;;4954570;28;20094;-85
2023/05/10 00:51:59;;;;;;;8.82;3.45;;;;;;;;;;4970089;28;20432;-83
2023/05/10 00:54:26;;;;;;;4.47;2.70;;;;;;;;;;4954153;28;20051;-83
2023/05/10 00:56:54;;;;;;;4.45;2.85;;;;;;;;;;4953715;28;20035;-83
2023/05/10 00:59:21;;;;;;;6.28;2.95;;;;;;;;;;4954990;28;20127;-83
2023/05/10 01:01:48;;;;;;;4.97;2.92;;;;;;;;;;4964903;28;20085;-87
2023/05/10 01:04:15;;;;;;;7.20;2.70;;;;;;;;;;4954393;28;20049;-83
2023/05/10 01:06:42;;;;;;;4.82;3.00;;;;;;;;;;4960779;28;20059;-82
2023/05/10 01:09:11;;;;;;;5.68;2.95;;;;;;;;;;4978320;28;20049;-83
2023/05/10 01:11:38;;;;;;;6.72;3.00;;;;;;;;;;4975786;28;20109;-84
2023/05/10 01:14:06;;;;;;;5.70;2.88;;;;;;;;;;4977784;28;20148;-84
2023/05/10 01:16:36;;;;;;;6.85;3.20;;;;;;;;;;4961043;28;20050;-85
2023/05/10 01:19:05;;;;;;;6.45;3.42;;;;;;;;;;4984959;28;20118;-83
2023/05/10 01:21:50;;;;;;;4.97;2.65;;;;;;;;;;4983243;28;20392;-82
2023/05/10 01:24:19;;;;;;;6.10;3.35;;;;;;;;;;4993950;28;20046;-82
2023/05/10 01:26:48;;;;;;;8.02;3.10;;;;;;;;;;4999962;28;20050;-81
2023/05/10 01:29:34;;;;;;;5.13;2.95;;;;;;;;;;4994750;28;20067;-81
2023/05/10 01:32:06;;;;;;;5.57;3.00;;;;;;;;;;4954320;28;20199;-79
2023/05/10 01:34:35;;;;;;;7.25;3.20;;;;;;;;;;4956403;29;20050;-80
2023/05/10 01:37:05;;;;;;;7.47;3.42;;;;;;;;;;4972018;28;20058;-83
2023/05/10 01:39:36;;;;;;;6.78;3.35;;;;;;;;;;4953315;29;20110;-79
2023/05/10 01:42:25;;;;;;;5.00;3.05;;;;;;;;;;4938205;29;20090;-84
2023/05/10 01:44:52;;;;;;;6.25;3.28;;;;;;;;;;4952531;28;20039;-84
2023/05/10 01:47:23;;;;;;;6.85;3.20;;;;;;;;;;4953444;28;20464;-82
2023/05/10 01:49:51;;;;;;;10.00;3.10;;;;;;;;;;4938260;28;20060;-81
2023/05/10 01:52:19;;;;;;;7.22;3.47;;;;;;;;;;4954399;28;20051;-83
2023/05/10 01:54:50;;;;;;;7.65;4.07;;;;;;;;;;4938415;28;20039;-82
2023/05/10 01:57:17;;;;;;;6.55;3.40;;;;;;;;;;4938516;28;20495;-84
2023/05/10 01:59:46;;;;;;;7.15;3.42;;;;;;;;;;4952972;28;20039;-82
2023/05/10 02:02:13;;;;;;;8.70;3.42;;;;;;;;;;4962969;28;20113;-82
2023/05/10 02:04:40;;;;;;;9.82;3.53;;;;;;;;;;4970702;28;20117;-84
2023/05/10 02:07:08;;;;;;;4.43;3.42;;;;;;;;;;4957881;28;20078;-84
2023/05/10 02:09:36;;;;;;;8.50;3.40;;;;;;;;;;4957726;28;20128;-80
2023/05/10 02:12:05;;;;;;;10.35;3.17;;;;;;;;;;4990691;28;20538;-82
2023/05/10 02:14:32;;;;;;;9.95;3.38;;;;;;;;;;4954765;28;20039;-84
2023/05/10 02:16:59;;;;;;;9.93;3.15;;;;;;;;;;4973468;28;20110;-83
2023/05/10 02:19:27;;;;;;;5.18;3.03;;;;;;;;;;4972159;28;20070;-83
2023/05/10 02:21:56;;;;;;;9.57;3.40;;;;;;;;;;4955528;28;20129;-83
2023/05/10 02:24:24;;;;;;;5.93;3.45;;;;;;;;;;4974175;28;20436;-82
2023/05/10 02:26:53;;;;;;;6.00;3.33;;;;;;;;;;4972518;28;20035;-84
2023/05/10 02:29:20;;;;;;;8.48;3.33;;;;;;;;;;4982600;28;20043;-80
2023/05/10 02:31:47;;;;;;;9.02;3.17;;;;;;;;;;4952996;28;20114;-83
2023/05/10 02:34:14;;;;;;;4.85;3.10;;;;;;;;;;4970551;28;20055;-83
2023/05/10 02:36:41;;;;;;;7.57;3.28;;;;;;;;;;4938477;29;20102;-84
2023/05/10 02:39:12;;;;;;;8.38;3.85;;;;;;;;;;4954374;29;20035;-85
2023/05/10 02:41:41;;;;;;;7.05;3.25;;;;;;;;;;4937649;29;20043;-82
2023/05/10 02:44:09;;;;;;;6.93;3.45;;;;;;;;;;4953468;28;20099;-79
2023/05/10 02:46:37;;;;;;;8.55;3.33;;;;;;;;;;4952025;28;20046;-78
2023/05/10 02:49:04;;;;;;;6.85;3.75;;;;;;;;;;4969849;28;20051;-78
2023/05/10 02:51:32;;;;;;;6.60;2.80;;;;;;;;;;4968098;28;20054;-81
2023/05/10 02:54:00;;;;;;;7.18;3.22;;;;;;;;;;4966037;28;20156;-81
2023/05/10 02:56:33;;;;;;;5.65;3.10;;;;;;;;;;4961242;28;20054;-83
2023/05/10 02:58:59;;;;;;;5.32;3.33;;;;;;;;;;4953113;28;20058;-79
2023/05/10 03:01:26;;;;;;;6.00;3.42;;;;;;;;;;4942762;28;20047;-81
2023/05/10 03:03:53;;;;;;;7.70;3.50;;;;;;;;;;4950397;28;20388;-82
2023/05/10 03:06:19;;;;;;;6.47;3.25;;;;;;;;;;4989769;28;20046;-84
2023/05/10 03:08:46;;;;;;;8.38;3.50;;;;;;;;;;4956842;28;20054;-83
2023/05/10 03:11:13;;;;;;;6.43;3.70;;;;;;;;;;4973516;28;20046;-81
2023/05/10 03:13:43;;;;;;;9.52;3.30;;;;;;;;;;4991888;28;20043;-84
2023/05/10 03:16:15;;;;;;;6.00;3.40;;;;;;;;;;4990359;28;20063;-82
2023/05/10 03:18:54;;;;;;;6.53;3.90;;;;;;;;;;4974868;28;20039;-84
2023/05/10 03:21:22;;;;;;;4.75;3.10;;;;;;;;;;4983017;28;20034;-80
2023/05/10 03:24:01;;;;;;;7.43;3.50;;;;;;;;;;4962608;28;20121;-82
2023/05/10 03:26:28;;;;;;;10.98;3.50;;;;;;;;;;4970725;28;20092;-85
2023/05/10 03:29:07;;;;;;;9.57;3.70;;;;;;;;;;4976540;28;20467;-85
2023/05/10 03:31:34;;;;;;;6.05;3.25;;;;;;;;;;4954154;28;20054;-83
2023/05/10 03:34:01;;;;;;;9.20;4.22;;;;;;;;;;4955101;28;20098;-86
2023/05/10 03:36:28;;;;;;;5.65;3.33;;;;;;;;;;4953185;28;20154;-83
2023/05/10 03:38:55;;;;;;;5.53;3.75;;;;;;;;;;4970637;28;20438;-83
2023/05/10 03:41:21;;;;;;;5.32;3.70;;;;;;;;;;4969206;28;20547;-85
2023/05/10 03:43:48;;;;;;;7.22;3.60;;;;;;;;;;4954212;28;20044;-85
2023/05/10 03:46:15;;;;;;;7.05;3.55;;;;;;;;;;4951646;28;20540;-81
2023/05/10 03:48:41;;;;;;;7.43;3.85;;;;;;;;;;4936822;28;20142;-83
2023/05/10 03:51:08;;;;;;;8.82;3.50;;;;;;;;;;4952886;28;20075;-83
2023/05/10 03:53:35;;;;;;;6.32;3.42;;;;;;;;;;4934535;28;20061;-83
2023/05/10 03:56:02;;;;;;;8.00;3.65;;;;;;;;;;4949600;28;20091;-84
2023/05/10 03:58:28;;;;;;;14.88;3.60;;;;;;;;;;4945591;28;20078;-85
2023/05/10 04:00:55;;;;;;;8.15;3.28;;;;;;;;;;4984791;28;20051;-82
2023/05/10 04:03:22;;;;;;;5.43;3.28;;;;;;;;;;4944071;28;20471;-84
2023/05/10 04:05:57;;;;;;;10.88;3.40;;;;;;;;;;4968942;28;20408;-84
2023/05/10 04:08:24;;;;;;;7.22;3.50;;;;;;;;;;4982080;28;20071;-81
2023/05/10 04:10:51;;;;;;;7.93;3.60;;;;;;;;;;4951682;28;20047;-81
2023/05/10 04:13:18;;;;;;;6.80;2.88;;;;;;;;;;4951805;28;20083;-84
2023/05/10 04:15:45;;;;;;;9.57;3.42;;;;;;;;;;4951778;28;20102;-84
2023/05/10 04:18:11;;;;;;;6.00;3.42;;;;;;;;;;4951480;28;20051;-81
2023/05/10 04:20:38;;;;;;;7.65;3.38;;;;;;;;;;4962119;28;20058;-80
2023/05/10 04:23:05;;;;;;;7.30;3.78;;;;;;;;;;4969213;28;20126;-81
2023/05/10 04:25:34;;;;;;;8.35;3.70;;;;;;;;;;4951675;28;20075;-82
2023/05/10 04:28:00;;;;;;;10.32;4.60;;;;;;;;;;4954431;28;20263;-84
2023/05/10 04:30:29;;;;;;;9.73;3.55;;;;;;;;;;4948137;28;20105;-81
2023/05/10 04:32:55;;;;;;;8.98;3.20;;;;;;;;;;4936033;28;20059;-82
2023/05/10 04:35:22;;;;;;;6.63;3.20;;;;;;;;;;4955824;28;20657;-79
2023/05/10 04:37:48;;;;;;;5.47;3.00;;;;;;;;;;4972930;28;20066;-80
2023/05/10 04:40:15;;;;;;;8.57;3.53;;;;;;;;;;5006412;28;20103;-83
2023/05/10 04:42:43;;;;;;;5.85;3.20;;;;;;;;;;4963740;28;20067;-83
2023/05/10 04:45:10;;;;;;;10.57;3.55;;;;;;;;;;4969999;28;20062;-85
2023/05/10 04:47:36;;;;;;;9.07;3.40;;;;;;;;;;4940106;28;20055;-83
2023/05/10 04:50:04;;;;;;;7.53;3.05;;;;;;;;;;4936721;29;20059;-84
2023/05/10 04:52:31;;;;;;;7.47;3.78;;;;;;;;;;4936702;29;20301;-81
2023/05/10 04:54:57;;;;;;;9.68;3.13;;;;;;;;;;4938060;29;20111;-83
2023/05/10 04:57:24;;;;;;;10.05;3.30;;;;;;;;;;4942084;28;20050;-83
2023/05/10 04:59:51;;;;;;;7.78;3.45;;;;;;;;;;4918945;29;20412;-82
2023/05/10 05:02:17;;;;;;;9.50;3.50;;;;;;;;;;4988448;28;20036;-81
2023/05/10 05:04:44;;;;;;;7.55;3.08;;;;;;;;;;4970084;28;20047;-82
2023/05/10 05:07:10;;;;;;;7.30;3.65;;;;;;;;;;4954751;28;20055;-80
2023/05/10 05:09:37;;;;;;;10.68;3.28;;;;;;;;;;4979654;28;20023;-79
2023/05/10 05:12:04;;;;;;;7.95;3.60;;;;;;;;;;4982545;28;20520;-80
2023/05/10 05:14:30;;;;;;;6.63;2.80;;;;;;;;;;4953129;28;20117;-77
2023/05/10 05:16:57;;;;;;;7.22;3.20;;;;;;;;;;4932526;29;20055;-79
2023/05/10 05:19:24;;;;;;;9.30;2.78;;;;;;;;;;4935078;29;20043;-80
2023/05/10 05:21:50;;;;;;;6.25;3.03;;;;;;;;;;4952511;28;20674;-82
2023/05/10 05:24:17;;;;;;;5.65;3.08;;;;;;;;;;4937134;28;20094;-84
2023/05/10 05:26:43;;;;;;;7.78;2.58;;;;;;;;;;4936193;28;20154;-81
2023/05/10 05:29:10;;;;;;;5.18;2.90;;;;;;;;;;4952674;28;20043;-79
2023/05/10 05:31:36;;;;;;;8.60;3.15;;;;;;;;;;4951908;28;20129;-81
2023/05/10 05:34:03;;;;;;;12.07;3.22;;;;;;;;;;4953597;28;20103;-80
2023/05/10 05:36:31;;;;;;;4.97;2.88;;;;;;;;;;4937573;29;20121;-82
2023/05/10 05:38:57;;;;;;;8.85;2.83;;;;;;;;;;4955055;29;20527;-82
2023/05/10 05:41:24;;;;;;;5.68;2.58;;;;;;;;;;4955173;28;20051;-80
2023/05/10 05:43:51;;;;;;;8.50;3.00;;;;;;;;;;4954406;28;20139;-82
2023/05/10 05:46:17;;;;;;;5.00;2.55;;;;;;;;;;4975905;28;20356;-81
2023/05/10 05:48:44;;;;;;;6.53;3.08;;;;;;;;;;4943146;28;20047;-82
2023/05/10 05:51:10;;;;;;;5.78;2.80;;;;;;;;;;4977697;28;20056;-84
2023/05/10 05:53:37;;;;;;;5.97;3.10;;;;;;;;;;4960798;28;20099;-83
2023/05/10 05:56:03;;;;;;;9.43;2.88;;;;;;;;;;4946793;28;20051;-84
2023/05/10 05:58:30;;;;;;;5.15;2.55;;;;;;;;;;4974257;28;20047;-80
2023/05/10 06:00:57;;;;;;;6.05;2.90;;;;;;;;;;4931607;28;20066;-82
2023/05/10 06:03:23;;;;;;;5.40;2.65;;;;;;;;;;4960604;28;20575;-87
2023/05/10 06:05:50;;;;;;;7.45;2.65;;;;;;;;;;4955139;28;20114;-80
2023/05/10 06:08:17;;;;;;;7.32;2.80;;;;;;;;;;4972637;28;20066;-82
2023/05/10 06:10:44;;;;;;;4.35;2.75;;;;;;;;;;4971175;28;20050;-83
2023/05/10 06:13:10;;;;;;;5.05;2.58;;;;;;;;;;4987780;28;20069;-83
2023/05/10 06:15:37;;;;;;;8.07;3.10;;;;;;;;;;4983174;28;20047;-79
2023/05/10 06:18:04;;;;;;;4.55;3.00;;;;;;;;;;5004799;28;20134;-79
2023/05/10 06:20:31;;;;;;;11.40;2.70;;;;;;;;;;4984299;28;20133;-83
2023/05/10 06:22:58;;;;;;;6.07;3.05;;;;;;;;;;4959679;28;20044;-82
2023/05/10 06:25:24;;;;;;;5.68;2.58;;;;;;;;;;4989060;28;20039;-85
2023/05/10 06:27:55;;;;;;;7.53;2.63;;;;;;;;;;4974010;28;20045;-83
2023/05/10 06:30:26;;;;;;;8.20;2.75;;;;;;;;;;4963410;28;20035;-80
2023/05/10 06:32:53;;;;;;;8.15;2.58;;;;;;;;;;4937904;28;20131;-83
2023/05/10 06:35:20;;;;;;;9.13;2.88;;;;;;;;;;4953559;28;20532;-85
2023/05/10 06:37:46;;;;;;;6.65;2.47;;;;;;;;;;4938110;28;20244;-83
2023/05/10 06:40:13;;;;;;;3.92;2.53;;;;;;;;;;4967725;28;20047;-80
2023/05/10 06:42:39;;;;;;;3.95;2.65;;;;;;;;;;4954834;28;20051;-83
2023/05/10 06:45:07;;;;;;;6.53;2.78;;;;;;;;;;4953244;28;20184;-82
2023/05/10 06:47:33;;;;;;;4.85;2.63;;;;;;;;;;4965964;28;20043;-81
2023/05/10 06:50:04;;;;;;;5.13;2.55;;;;;;;;;;4950097;29;20043;-82
2023/05/10 06:52:31;;;;;;;4.07;2.45;;;;;;;;;;4967798;28;20502;-79
2023/05/10 06:54:58;;;;;;;4.50;2.63;;;;;;;;;;4967643;28;20070;-82
2023/05/10 06:57:24;;;;;;;4.53;2.58;;;;;;;;;;4957231;28;20100;-80
2023/05/10 06:59:58;;;;;;;6.25;2.75;;;;;;;;;;4953007;28;20130;-82
2023/05/10 07:02:24;;;;;;;5.00;2.90;;;;;;;;;;4962848;28;20051;-82
2023/05/10 07:04:51;;;;;;;7.57;3.17;;;;;;;;;;4954838;28;20051;-82
2023/05/10 07:07:18;;;;;;;7.22;2.88;;;;;;;;;;4973817;28;20043;-83
2023/05/10 07:09:45;;;;;;;9.88;2.80;;;;;;;;;;4969908;28;20043;-82
2023/05/10 07:12:12;;;;;;;4.80;2.67;;;;;;;;;;4968997;28;20400;-80
2023/05/10 07:14:41;;;;;;;4.35;2.80;;;;;;;;;;4994090;28;20399;-81
2023/05/10 07:17:08;;;;;;;4.72;2.80;;;;;;;;;;4968574;28;20531;-80
2023/05/10 07:19:35;;;;;;;4.88;2.60;;;;;;;;;;4975524;28;20047;-82
2023/05/10 07:22:01;;;;;;;6.28;2.80;;;;;;;;;;4958335;28;20511;-84
2023/05/10 07:24:28;;;;;;;3.83;2.63;;;;;;;;;;4987780;28;20398;-80
2023/05/10 07:26:54;;;;;;;4.75;2.85;;;;;;;;;;4972881;28;20074;-82
2023/05/10 07:29:21;;;;;;;12.18;3.00;;;;;;;;;;4980681;28;20444;-81
2023/05/10 07:31:47;;;;;;;6.32;2.80;;;;;;;;;;4971170;28;20274;-82
2023/05/10 07:34:14;;;;;;;6.00;2.83;;;;;;;;;;4937207;28;20550;-81
2023/05/10 07:36:41;;;;;;;6.13;2.63;;;;;;;;;;4954591;29;20067;-83
2023/05/10 07:39:08;;;;;;;4.13;2.80;;;;;;;;;;4952238;29;20138;-81
2023/05/10 07:41:34;;;;;;;7.22;2.80;;;;;;;;;;4951576;28;20046;-83
2023/05/10 07:44:01;;;;;;;4.32;2.72;;;;;;;;;;4949952;28;20051;-81
2023/05/10 07:46:28;;;;;;;6.10;2.72;;;;;;;;;;4966507;28;20047;-80
2023/05/10 07:48:55;;;;;;;7.00;2.45;;;;;;;;;;4953698;28;20054;-81
2023/05/10 07:51:21;;;;;;;6.38;2.40;;;;;;;;;;4960327;28;20057;-83
2023/05/10 07:53:48;;;;;;;6.07;3.20;;;;;;;;;;4958820;28;20047;-82
2023/05/10 07:56:29;;;;;;;4.03;2.72;;;;;;;;;;4963378;28;20063;-81
2023/05/10 07:58:56;;;;;;;4.85;3.00;;;;;;;;;;4948741;28;20098;-78
2023/05/10 08:01:23;;;;;;;4.88;3.10;;;;;;;;;;4969900;28;20101;-83
2023/05/10 08:03:50;;;;;;;6.68;2.95;;;;;;;;;;4960530;28;20047;-83
2023/05/10 08:06:18;;;;;;;4.80;2.70;;;;;;;;;;4994239;28;20042;-81
2023/05/10 08:08:50;;;;;;;6.72;3.42;;;;;;;;;;4981603;28;20043;-83
2023/05/10 08:11:17;;;;;;;4.75;2.80;;;;;;;;;;4984119;28;20097;-83
2023/05/10 08:13:47;;;;;;;6.57;2.85;;;;;;;;;;4985310;28;20557;-84
2023/05/10 08:16:14;;;;;;;3.95;2.40;;;;;;;;;;4956429;28;20050;-82
2023/05/10 08:18:40;;;;;;;5.93;2.92;;;;;;;;;;4956022;28;20146;-84
2023/05/10 08:21:07;;;;;;;9.00;3.22;;;;;;;;;;4956214;28;20058;-83
2023/05/10 08:23:34;;;;;;;10.82;2.92;;;;;;;;;;4987805;28;20518;-83
2023/05/10 08:26:00;;;;;;;14.05;3.70;;;;;;;;;;4972948;28;20054;-83
2023/05/10 08:28:27;;;;;;;5.35;3.15;;;;;;;;;;4954778;28;20503;-84
2023/05/10 08:30:54;;;;;;;5.78;3.20;;;;;;;;;;4964679;28;20626;-83
2023/05/10 08:33:20;;;;;;;4.22;2.75;;;;;;;;;;4953430;28;20216;-84
2023/05/10 08:35:47;;;;;;;4.75;2.78;;;;;;;;;;4953115;28;20098;-80
2023/05/10 08:38:14;;;;;;;6.10;3.10;;;;;;;;;;4938155;29;20114;-81
2023/05/10 08:40:41;;;;;;;8.57;2.78;;;;;;;;;;4935688;28;20039;-84
2023/05/10 08:43:12;;;;;;;5.28;3.00;;;;;;;;;;4954277;28;20051;-84
2023/05/10 08:45:45;;;;;;;11.23;2.78;;;;;;;;;;4961575;28;20047;-83
2023/05/10 08:48:11;;;;;;;8.32;3.70;;;;;;;;;;4961409;28;20112;-83
2023/05/10 08:50:39;;;;;;;8.90;3.50;;;;;;;;;;4953346;28;20090;-84
2023/05/10 08:53:12;;;;;;;10.00;3.20;;;;;;;;;;4953416;28;20146;-83
2023/05/10 08:55:42;;;;;;;9.57;3.70;;;;;;;;;;4937744;28;20130;-84
2023/05/10 08:58:09;;;;;;;7.97;4.30;;;;;;;;;;4960715;28;20119;-82
2023/05/10 09:00:37;;;;;;;6.13;3.70;;;;;;;;;;4955529;28;20051;-83
2023/05/10 09:03:04;;;;;;;8.63;3.85;;;;;;;;;;4971576;28;20119;-84
2023/05/10 09:05:31;;;;;;;7.72;4.22;;;;;;;;;;4978132;28;20050;-83
2023/05/10 09:08:00;;;;;;;9.35;4.50;;;;;;;;;;4995174;28;20111;-82
2023/05/10 09:10:27;;;;;;;10.77;4.25;;;;;;;;;;4971850;28;20053;-82
2023/05/10 09:12:56;;;;;;;7.22;4.22;;;;;;;;;;4978107;28;20121;-82
2023/05/10 09:15:25;;;;;;;6.45;4.30;;;;;;;;;;4971246;28;20126;-82
2023/05/10 09:17:52;;;;;;;11.85;4.88;;;;;;;;;;4969447;28;20035;-84
2023/05/10 09:20:19;;;;;;;6.75;4.05;;;;;;;;;;4950834;28;20118;-82
2023/05/10 09:22:46;;;;;;;6.18;4.22;;;;;;;;;;4988239;28;20038;-82
2023/05/10 09:25:13;;;;;;;9.38;4.20;;;;;;;;;;4974343;28;20050;-84
2023/05/10 09:27:41;;;;;;;13.95;4.40;;;;;;;;;;4974562;28;20055;-83
2023/05/10 09:30:08;;;;;;;7.05;4.43;;;;;;;;;;4975066;28;20051;-81
2023/05/10 09:32:41;;;;;;;7.72;4.53;;;;;;;;;;4958746;28;20051;-83
2023/05/10 09:35:12;;;;;;;10.80;4.38;;;;;;;;;;4957987;28;20046;-82
2023/05/10 09:37:41;;;;;;;8.13;4.50;;;;;;;;;;4974571;28;20078;-81
2023/05/10 09:40:10;;;;;;;8.45;4.55;;;;;;;;;;4978281;28;20061;-81
2023/05/10 09:42:37;;;;;;;9.85;4.85;;;;;;;;;;4977451;28;20121;-82
2023/05/10 09:45:04;;;;;;;6.30;4.45;;;;;;;;;;4953615;28;20597;-80
2023/05/10 09:47:34;;;;;;;8.00;4.40;;;;;;;;;;4955383;28;20097;-81
2023/05/10 09:50:03;;;;;;;8.32;4.38;;;;;;;;;;4968241;28;20054;-81
2023/05/10 09:52:30;;;;;;;8.40;4.82;;;;;;;;;;5003318;28;20043;-80
2023/05/10 09:54:57;;;;;;;10.85;5.30;;;;;;;;;;4976159;28;20121;-82
2023/05/10 09:57:25;;;;;;;7.55;4.55;;;;;;;;;;4974631;28;20047;-80
2023/05/10 09:59:54;;;;;;;9.35;5.45;;;;;;;;;;4963244;28;20038;-80
2023/05/10 10:02:21;;;;;;;7.40;5.13;;;;;;;;;;4960412;28;20043;-83
2023/05/10 10:04:49;;;;;;;9.57;5.38;;;;;;;;;;5001271;28;20541;-81
2023/05/10 10:07:21;;;;;;;9.27;5.72;;;;;;;;;;4975026;28;20137;-81
2023/05/10 10:09:48;;;;;;;9.73;6.10;;;;;;;;;;4974277;28;20073;-82
2023/05/10 10:12:14;;;;;;;12.55;6.40;;;;;;;;;;4975334;28;20066;-80
2023/05/10 10:14:41;;;;;;;12.82;6.10;;;;;;;;;;4976524;28;20058;-82
2023/05/10 10:17:08;;;;;;;15.93;6.85;;;;;;;;;;4972904;28;20051;-81
2023/05/10 10:19:36;;;;;;;11.95;6.78;;;;;;;;;;4990090;28;20062;-82
2023/05/10 10:22:03;;;;;;;12.15;6.35;;;;;;;;;;4990310;28;20510;-81
2023/05/10 10:24:30;;;;;;;13.95;6.60;;;;;;;;;;4989896;28;20082;-81
2023/05/10 10:27:02;;;;;;;9.85;6.43;;;;;;;;;;4973869;28;20055;-81
2023/05/10 10:29:38;;;;;;;9.65;6.32;;;;;;;;;;4981874;28;20046;-83
2023/05/10 10:32:07;;;;;;;12.18;7.25;;;;;;;;;;4955477;28;20051;-81
2023/05/10 10:34:34;;;;;;;14.00;6.85;;;;;;;;;;4968401;28;20110;-80
2023/05/10 10:37:04;;;;;;;9.93;6.28;;;;;;;;;;4955153;29;20051;-81
2023/05/10 10:39:30;;;;;;;10.68;6.40;;;;;;;;;;4970730;28;20566;-79
2023/05/10 10:41:58;;;;;;;16.60;6.85;;;;;;;;;;4960252;28;20055;-79
2023/05/10 10:44:25;;;;;;;12.35;6.75;;;;;;;;;;4957749;28;20118;-82
2023/05/10 10:47:18;;;;;;;12.40;6.55;;;;;;;;;;4952259;28;20051;-80
2023/05/10 10:49:56;;;;;;;13.38;6.30;;;;;;;;;;4951913;28;20058;-79
2023/05/10 10:52:23;;;;;;;9.40;6.10;;;;;;;;;;4967981;28;20051;-80
2023/05/10 10:55:10;;;;;;;10.20;5.80;;;;;;;;;;4952242;28;20054;-81
2023/05/10 10:57:45;;;;;;;9.05;5.68;;;;;;;;;;4951924;28;20616;-83
2023/05/10 11:00:30;;;;;;;8.82;5.20;;;;;;;;;;4953451;28;20051;-80
2023/05/10 11:03:13;;;;;;;10.23;5.07;;;;;;;;;;4964332;28;20476;-82
2023/05/10 11:05:41;;;;;;;12.00;5.25;;;;;;;;;;4972960;28;20057;-81
2023/05/10 11:08:10;;;;;;;9.23;5.28;;;;;;;;;;4973197;28;20069;-81
2023/05/10 11:10:37;;;;;;;8.40;5.10;;;;;;;;;;4973334;28;20175;-80
2023/05/10 11:13:07;;;;;;;11.93;5.30;;;;;;;;;;4973216;28;20053;-82
2023/05/10 11:15:35;;;;;;;8.85;5.10;;;;;;;;;;4973460;28;20197;-81
2023/05/10 11:18:19;;;;;;;9.90;4.97;;;;;;;;;;4988582;28;20110;-82
2023/05/10 11:20:52;;;;;;;9.63;5.45;;;;;;;;;;4974548;28;20049;-82
2023/05/10 11:23:20;;;;;;;7.28;5.03;;;;;;;;;;4973164;28;20043;-82
2023/05/10 11:25:48;;;;;;;14.98;5.45;;;;;;;;;;4957122;28;20130;-81
2023/05/10 11:28:14;;;;;;;10.32;5.40;;;;;;;;;;4975118;28;20118;-81
2023/05/10 11:30:43;;;;;;;10.82;5.55;;;;;;;;;;4969724;28;20066;-82
2023/05/10 11:33:14;;;;;;;9.45;5.82;;;;;;;;;;4950494;28;20035;-80
2023/05/10 11:35:41;;;;;;;9.82;5.72;;;;;;;;;;4965333;28;20047;-80
2023/05/10 11:38:12;;;;;;;9.98;5.47;;;;;;;;;;4951285;28;20063;-82
2023/05/10 11:40:39;;;;;;;13.25;4.68;;;;;;;;;;4934402;28;20580;-82
2023/05/10 11:43:07;;;;;;;9.77;5.00;;;;;;;;;;4935276;29;20047;-81
2023/05/10 11:45:35;;;;;;;7.78;4.82;;;;;;;;;;4967153;28;20047;-81
2023/05/10 11:48:02;;;;;;;8.25;4.80;;;;;;;;;;4935679;28;20043;-81
2023/05/10 11:50:29;;;;;;;6.90;4.70;;;;;;;;;;4954297;28;20054;-83
2023/05/10 11:52:56;;;;;;;7.68;4.65;;;;;;;;;;4953378;28;20055;-81
2023/05/10 11:55:24;;;;;;;6.00;4.55;;;;;;;;;;4953212;28;20054;-81
2023/05/10 11:57:54;;;;;;;8.10;4.65;;;;;;;;;;4954269;28;20641;-80
2023/05/10 12:00:21;;;;;;;5.80;4.35;;;;;;;;;;4953454;28;20134;-79
2023/05/10 12:02:48;;;;;;;6.68;4.55;;;;;;;;;;4945902;28;20047;-80
2023/05/10 12:05:14;;;;;;;7.53;4.70;;;;;;;;;;4988866;28;20046;-81
2023/05/10 12:07:41;;;;;;;7.72;4.50;;;;;;;;;;4989627;28;20055;-82
2023/05/10 12:10:09;;;;;;;7.50;4.70;;;;;;;;;;4990561;28;20043;-82
2023/05/10 12:12:39;;;;;;;6.53;4.10;;;;;;;;;;4973582;28;20556;-81
2023/05/10 12:15:10;;;;;;;8.63;4.95;;;;;;;;;;4973559;28;20058;-82
2023/05/10 12:17:37;;;;;;;7.45;4.50;;;;;;;;;;4959039;28;20054;-80
2023/05/10 12:20:16;;;;;;;6.13;4.38;;;;;;;;;;4986961;28;20050;-79
2023/05/10 12:22:44;;;;;;;7.32;4.63;;;;;;;;;;4982488;28;20050;-81
2023/05/10 12:25:11;;;;;;;7.57;5.00;;;;;;;;;;4990759;28;20053;-79
2023/05/10 12:27:37;;;;;;;7.85;5.35;;;;;;;;;;4988550;28;20085;-80
2023/05/10 12:30:04;;;;;;;9.15;5.20;;;;;;;;;;4959237;28;20065;-83
2023/05/10 12:32:37;;;;;;;6.70;4.90;;;;;;;;;;4935996;28;20134;-80
2023/05/10 12:35:04;;;;;;;15.50;5.20;;;;;;;;;;4968429;28;20059;-82
2023/05/10 12:37:30;;;;;;;7.60;5.40;;;;;;;;;;4935897;28;20580;-80
2023/05/10 12:39:57;;;;;;;10.13;5.50;;;;;;;;;;4967116;28;20071;-80
2023/05/10 12:42:24;;;;;;;10.27;5.28;;;;;;;;;;4951398;28;20134;-80
2023/05/10 12:44:54;;;;;;;8.18;5.43;;;;;;;;;;4936307;28;20150;-79
2023/05/10 12:47:21;;;;;;;7.40;5.10;;;;;;;;;;4967553;28;20552;-81
2023/05/10 12:49:47;;;;;;;12.90;5.47;;;;;;;;;;4952310;28;20062;-81
2023/05/10 12:52:14;;;;;;;9.30;5.30;;;;;;;;;;4953746;28;20047;-81
2023/05/10 12:54:40;;;;;;;7.55;5.10;;;;;;;;;;4952148;29;20126;-81
2023/05/10 12:57:07;;;;;;;10.20;5.57;;;;;;;;;;4953053;28;20077;-80
2023/05/10 12:59:34;;;;;;;9.23;5.22;;;;;;;;;;4954862;28;20066;-81
2023/05/10 13:02:03;;;;;;;9.98;5.68;;;;;;;;;;4963585;28;20077;-81
2023/05/10 13:04:29;;;;;;;10.20;6.25;;;;;;;;;;4968204;28;20558;-79
2023/05/10 13:06:58;;;;;;;8.02;5.78;;;;;;;;;;4988696;28;20101;-79
2023/05/10 13:09:26;;;;;;;10.52;5.97;;;;;;;;;;4973898;28;20505;-80
2023/05/10 13:11:54;;;;;;;11.88;5.88;;;;;;;;;;4956772;28;20122;-80
2023/05/10 13:14:20;;;;;;;9.63;5.32;;;;;;;;;;4973306;28;20062;-80
2023/05/10 13:16:47;;;;;;;8.45;5.47;;;;;;;;;;4973766;28;20130;-80
2023/05/10 13:19:14;;;;;;;10.80;5.80;;;;;;;;;;4957507;28;20043;-81
2023/05/10 13:21:44;;;;;;;8.48;5.20;;;;;;;;;;4974519;28;20051;-80
2023/05/10 13:24:13;;;;;;;9.02;5.43;;;;;;;;;;4972922;28;20650;-80
2023/05/10 13:26:40;;;;;;;9.05;5.38;;;;;;;;;;4961792;28;20395;-81
2023/05/10 13:29:07;;;;;;;8.55;5.43;;;;;;;;;;4959334;28;20047;-79
2023/05/10 13:31:34;;;;;;;14.40;5.85;;;;;;;;;;4960151;28;20036;-79
2023/05/10 13:34:01;;;;;;;7.10;5.50;;;;;;;;;;4952966;28;20105;-81
2023/05/10 13:36:28;;;;;;;9.98;5.70;;;;;;;;;;4964989;28;20057;-81
2023/05/10 13:38:54;;;;;;;10.82;5.70;;;;;;;;;;4966071;28;20063;-78
2023/05/10 13:41:21;;;;;;;12.07;5.90;;;;;;;;;;4936675;28;20130;-79
2023/05/10 13:43:49;;;;;;;12.05;5.60;;;;;;;;;;4970658;28;20098;-81
2023/05/10 13:46:15;;;;;;;8.15;5.15;;;;;;;;;;4955268;28;20047;-80
2023/05/10 13:48:42;;;;;;;8.48;6.00;;;;;;;;;;4943241;28;20057;-80
2023/05/10 13:51:09;;;;;;;9.63;6.43;;;;;;;;;;4969809;28;20272;-80
2023/05/10 13:53:36;;;;;;;9.75;5.20;;;;;;;;;;4969247;28;20223;-80
2023/05/10 13:56:03;;;;;;;9.27;4.82;;;;;;;;;;4980764;28;20062;-82
2023/05/10 13:58:29;;;;;;;8.88;5.30;;;;;;;;;;4961446;28;20114;-82
2023/05/10 14:00:56;;;;;;;7.90;5.10;;;;;;;;;;4950730;28;20047;-80
2023/05/10 14:03:22;;;;;;;9.50;4.93;;;;;;;;;;4970786;28;20055;-83
2023/05/10 14:05:49;;;;;;;12.77;5.22;;;;;;;;;;4954112;28;20047;-82
2023/05/10 14:08:16;;;;;;;10.40;4.93;;;;;;;;;;4963223;28;20054;-80
2023/05/10 14:10:42;;;;;;;7.03;4.93;;;;;;;;;;4942151;28;20055;-83
2023/05/10 14:13:09;;;;;;;6.68;4.97;;;;;;;;;;4955600;28;20055;-81
2023/05/10 14:15:35;;;;;;;5.32;4.15;;;;;;;;;;4954815;28;20047;-83
2023/05/10 14:18:02;;;;;;;7.70;4.38;;;;;;;;;;4960360;28;20051;-80
2023/05/10 14:20:29;;;;;;;5.45;4.53;;;;;;;;;;4983756;28;20051;-81
2023/05/10 14:22:56;;;;;;;7.88;4.25;;;;;;;;;;4961624;28;20040;-80
2023/05/10 14:25:26;;;;;;;9.05;4.80;;;;;;;;;;4937931;29;20412;-82
2023/05/10 14:27:54;;;;;;;6.57;4.25;;;;;;;;;;4953657;28;20043;-80
2023/05/10 14:30:21;;;;;;;5.65;4.20;;;;;;;;;;4961511;28;20047;-82
2023/05/10 14:32:47;;;;;;;5.40;4.13;;;;;;;;;;4956025;28;20456;-83
2023/05/10 14:35:14;;;;;;;4.95;3.65;;;;;;;;;;4956067;28;20135;-80
2023/05/10 14:37:44;;;;;;;7.18;3.60;;;;;;;;;;4952435;28;20153;-81
2023/05/10 14:40:12;;;;;;;7.20;4.10;;;;;;;;;;4959383;28;20047;-82
2023/05/10 14:42:38;;;;;;;8.95;4.00;;;;;;;;;;4962281;28;20086;-82
2023/05/10 14:45:05;;;;;;;8.70;3.83;;;;;;;;;;4978277;28;20055;-81